Terminal Aerodrome Forecast
Issued by NWS Wilmington, OH

Current Version | Previous Version | Graphics & Text | Print | Product List | Glossary On
Versions: 1 2 3 4 5 6 7 8 9 10 11 12 13 14 15 16 17 18 19 20 21 22 23
000
FTUS41 KILN 141100
TAFDAY
TAF
KDAY 141128Z 1412/1512 20018G35KT P6SM -SHRA OVC060
     FM141500 22018G30KT P6SM -SHRA OVC050
     FM141600 23018G26KT P6SM VCTS SCT022 OVC040CB
     FM142300 32014G22KT P6SM -RA SCT010 OVC022
     FM150200 33016G28KT 5SM -RA BR OVC008
     FM150700 34018G25KT 3SM -SN OVC006=

USA.gov is the U.S. government's official web portal to all federal, state and local government web resources and services.